sensor_id;sensor_type;location;lat;lon;timestamp;pressure;altitude;pressure_sealevel;temperature;humidity
37312;BME280;23197;53.912;9.138;2022-08-19T00:00:05;101281.97;;;23.55;66.13
37312;BME280;23197;53.912;9.138;2022-08-19T00:02:31;101284.25;;;23.58;66.05
37312;BME280;23197;53.912;9.138;2022-08-19T00:04:56;101282.25;;;23.60;65.84
37312;BME280;23197;53.912;9.138;2022-08-19T00:07:22;101280.59;;;23.59;65.59
37312;BME280;23197;53.912;9.138;2022-08-19T00:09:47;101276.91;;;23.60;65.83
37312;BME280;23197;53.912;9.138;2022-08-19T00:12:13;101280.59;;;23.59;65.73
37312;BME280;23197;53.912;9.138;2022-08-19T00:14:39;101275.25;;;23.59;65.78
37312;BME280;23197;53.912;9.138;2022-08-19T00:17:06;101282.25;;;23.60;65.94
37312;BME280;23197;53.912;9.138;2022-08-19T00:19:32;101276.91;;;23.60;65.80
37312;BME280;23197;53.912;9.138;2022-08-19T00:21:58;101269.09;;;23.59;65.66
37312;BME280;23197;53.912;9.138;2022-08-19T00:24:24;101260.91;;;23.60;65.57
37312;BME280;23197;53.912;9.138;2022-08-19T00:26:50;101251.94;;;23.61;65.79
37312;BME280;23197;53.912;9.138;2022-08-19T00:29:19;101258.22;;;23.60;65.70
37312;BME280;23197;53.912;9.138;2022-08-19T00:31:46;101252.91;;;23.60;65.79
37312;BME280;23197;53.912;9.138;2022-08-19T00:34:14;101258.22;;;23.60;65.62
37312;BME280;23197;53.912;9.138;2022-08-19T00:36:40;101253.06;;;23.59;65.62
37312;BME280;23197;53.912;9.138;2022-08-19T00:39:06;101261.25;;;23.57;65.82
37312;BME280;23197;53.912;9.138;2022-08-19T00:41:32;101261.25;;;23.57;65.70
37312;BME280;23197;53.912;9.138;2022-08-19T00:44:07;101255.09;;;23.56;65.80
37312;BME280;23197;53.912;9.138;2022-08-19T00:46:35;101253.25;;;23.57;65.66
37312;BME280;23197;53.912;9.138;2022-08-19T00:49:10;101243.78;;;23.54;65.81
37312;BME280;23197;53.912;9.138;2022-08-19T00:51:37;101246.25;;;23.56;65.74
37312;BME280;23197;53.912;9.138;2022-08-19T00:54:04;101233.94;;;23.55;65.90
37312;BME280;23197;53.912;9.138;2022-08-19T00:56:30;101235.59;;;23.56;65.91
37312;BME280;23197;53.912;9.138;2022-08-19T00:58:58;101227.91;;;23.53;65.97
37312;BME280;23197;53.912;9.138;2022-08-19T01:01:24;101227.91;;;23.53;65.92
37312;BME280;23197;53.912;9.138;2022-08-19T01:03:50;101222.56;;;23.53;65.82
37312;BME280;23197;53.912;9.138;2022-08-19T01:06:16;101227.91;;;23.53;65.94
37312;BME280;23197;53.912;9.138;2022-08-19T01:08:41;101221.94;;;23.51;65.92
37312;BME280;23197;53.912;9.138;2022-08-19T01:11:08;101220.09;;;23.51;65.96
37312;BME280;23197;53.912;9.138;2022-08-19T01:13:35;101229.09;;;23.50;66.13
37312;BME280;23197;53.912;9.138;2022-08-19T01:16:04;101235.25;;;23.51;65.96
37312;BME280;23197;53.912;9.138;2022-08-19T01:18:32;101233.25;;;23.53;66.07
37312;BME280;23197;53.912;9.138;2022-08-19T01:21:02;101237.75;;;23.52;66.05
37312;BME280;23197;53.912;9.138;2022-08-19T01:23:28;101236.59;;;23.55;66.03
37312;BME280;23197;53.912;9.138;2022-08-19T01:26:13;101241.94;;;23.55;66.00
37312;BME280;23197;53.912;9.138;2022-08-19T01:28:39;101232.09;;;23.55;66.07
37312;BME280;23197;53.912;9.138;2022-08-19T01:31:11;101236.59;;;23.55;66.06
37312;BME280;23197;53.912;9.138;2022-08-19T01:33:37;101234.56;;;23.57;66.04
37312;BME280;23197;53.912;9.138;2022-08-19T01:36:12;101225.91;;;23.55;65.92
37312;BME280;23197;53.912;9.138;2022-08-19T01:38:41;101232.56;;;23.59;65.99
37312;BME280;23197;53.912;9.138;2022-08-19T01:41:09;101225.56;;;23.58;65.91
37312;BME280;23197;53.912;9.138;2022-08-19T01:43:35;101238.72;;;23.60;66.16
37312;BME280;23197;53.912;9.138;2022-08-19T01:46:02;101235.94;;;23.61;66.17
37312;BME280;23197;53.912;9.138;2022-08-19T01:48:33;101226.09;;;23.62;66.10
37312;BME280;23197;53.912;9.138;2022-08-19T01:50:58;101224.06;;;23.64;66.00
37312;BME280;23197;53.912;9.138;2022-08-19T01:53:24;101227.56;;;23.64;65.90
37312;BME280;23197;53.912;9.138;2022-08-19T01:55:49;101214.22;;;23.64;66.21
37312;BME280;23197;53.912;9.138;2022-08-19T01:58:19;101204.56;;;23.63;66.02
37312;BME280;23197;53.912;9.138;2022-08-19T02:00:46;101207.22;;;23.63;66.17
37312;BME280;23197;53.912;9.138;2022-08-19T02:03:12;101198.22;;;23.64;65.87
37312;BME280;23197;53.912;9.138;2022-08-19T02:05:38;101206.22;;;23.64;66.09
37312;BME280;23197;53.912;9.138;2022-08-19T02:08:04;101203.56;;;23.64;66.06
37312;BME280;23197;53.912;9.138;2022-08-19T02:10:30;101199.22;;;23.63;66.05
37312;BME280;23197;53.912;9.138;2022-08-19T02:12:57;101195.72;;;23.63;65.97
37312;BME280;23197;53.912;9.138;2022-08-19T02:15:22;101203.91;;;23.61;66.15
37312;BME280;23197;53.912;9.138;2022-08-19T02:17:48;101197.88;;;23.59;66.11
37312;BME280;23197;53.912;9.138;2022-08-19T02:20:15;101194.56;;;23.57;66.10
37312;BME280;23197;53.912;9.138;2022-08-19T02:22:41;101203.75;;;23.54;66.26
37312;BME280;23197;53.912;9.138;2022-08-19T02:25:10;101197.59;;;23.54;66.27
37312;BME280;23197;53.912;9.138;2022-08-19T02:27:36;101197.59;;;23.54;66.39
37312;BME280;23197;53.912;9.138;2022-08-19T02:30:05;101185.22;;;23.53;65.99
37312;BME280;23197;53.912;9.138;2022-08-19T02:32:31;101182.72;;;23.51;66.14
37312;BME280;23197;53.912;9.138;2022-08-19T02:34:57;101182.72;;;23.51;66.16
37312;BME280;23197;53.912;9.138;2022-08-19T02:37:23;101180.88;;;23.52;66.24
37312;BME280;23197;53.912;9.138;2022-08-19T02:40:07;101178.59;;;23.49;66.11
37312;BME280;23197;53.912;9.138;2022-08-19T02:42:33;101180.25;;;23.50;66.11
37312;BME280;23197;53.912;9.138;2022-08-19T02:44:58;101171.59;;;23.48;66.43
37312;BME280;23197;53.912;9.138;2022-08-19T02:47:24;101171.59;;;23.48;66.26
37312;BME280;23197;53.912;9.138;2022-08-19T02:49:49;101173.59;;;23.46;66.27
37312;BME280;23197;53.912;9.138;2022-08-19T02:52:15;101170.28;;;23.44;66.37
37312;BME280;23197;53.912;9.138;2022-08-19T02:54:41;101169.44;;;23.43;66.30
37312;BME280;23197;53.912;9.138;2022-08-19T02:57:07;101179.28;;;23.43;66.43
37312;BME280;23197;53.912;9.138;2022-08-19T02:59:33;101164.94;;;23.44;66.35
37312;BME280;23197;53.912;9.138;2022-08-19T03:01:58;101171.09;;;23.44;66.37
37312;BME280;23197;53.912;9.138;2022-08-19T03:04:24;101169.44;;;23.43;66.29
37312;BME280;23197;53.912;9.138;2022-08-19T03:06:49;101174.59;;;23.45;66.18
37312;BME280;23197;53.912;9.138;2022-08-19T03:09:17;101173.75;;;23.44;66.08
37312;BME280;23197;53.912;9.138;2022-08-19T03:11:43;101163.91;;;23.45;66.23
37312;BME280;23197;53.912;9.138;2022-08-19T03:14:09;101161.25;;;23.45;66.48
37312;BME280;23197;53.912;9.138;2022-08-19T03:16:45;101171.47;;;23.41;66.38
37312;BME280;23197;53.912;9.138;2022-08-19T03:19:11;101166.94;;;23.42;66.49
37312;BME280;23197;53.912;9.138;2022-08-19T03:21:39;101162.59;;;23.41;66.44
37312;BME280;23197;53.912;9.138;2022-08-19T03:24:07;101151.63;;;23.36;66.58
37312;BME280;23197;53.912;9.138;2022-08-19T03:26:42;101150.31;;;23.32;66.36
37312;BME280;23197;53.912;9.138;2022-08-19T03:29:08;101159.97;;;23.33;66.53
37312;BME280;23197;53.912;9.138;2022-08-19T03:31:35;101162.63;;;23.33;66.74
37312;BME280;23197;53.912;9.138;2022-08-19T03:34:02;101158.31;;;23.32;66.72
37312;BME280;23197;53.912;9.138;2022-08-19T03:36:27;101160.97;;;23.32;66.46
37312;BME280;23197;53.912;9.138;2022-08-19T03:38:56;101157.66;;;23.29;66.67
37312;BME280;23197;53.912;9.138;2022-08-19T03:41:25;101162.00;;;23.31;66.62
37312;BME280;23197;53.912;9.138;2022-08-19T03:43:52;101162.16;;;23.29;66.66
37312;BME280;23197;53.912;9.138;2022-08-19T03:46:20;101164.66;;;23.31;66.63
37312;BME280;23197;53.912;9.138;2022-08-19T03:48:47;101156.28;;;23.34;66.78
37312;BME280;23197;53.912;9.138;2022-08-19T03:51:23;101163.81;;;23.30;66.66
37312;BME280;23197;53.912;9.138;2022-08-19T03:53:50;101162.63;;;23.33;66.76
37312;BME280;23197;53.912;9.138;2022-08-19T03:56:16;101173.31;;;23.33;66.41
37312;BME280;23197;53.912;9.138;2022-08-19T03:58:43;101165.13;;;23.34;66.67
37312;BME280;23197;53.912;9.138;2022-08-19T04:01:11;101168.66;;;23.35;66.47
37312;BME280;23197;53.912;9.138;2022-08-19T04:03:38;101169.63;;;23.34;66.70
37312;BME280;23197;53.912;9.138;2022-08-19T04:08:45;101177.16;;;23.30;66.78
37312;BME280;23197;53.912;9.138;2022-08-19T04:11:16;101178.16;;;23.29;66.47
37312;BME280;23197;53.912;9.138;2022-08-19T04:13:42;101184.34;;;23.29;66.68
37312;BME280;23197;53.912;9.138;2022-08-19T04:16:11;101183.50;;;23.29;66.67
37312;BME280;23197;53.912;9.138;2022-08-19T04:18:39;101198.69;;;23.28;67.10
37312;BME280;23197;53.912;9.138;2022-08-19T04:21:06;101193.34;;;23.28;67.14
37312;BME280;23197;53.912;9.138;2022-08-19T04:23:32;101200.34;;;23.29;67.28
37312;BME280;23197;53.912;9.138;2022-08-19T04:25:58;101199.81;;;23.34;67.00
37312;BME280;23197;53.912;9.138;2022-08-19T04:28:24;101201.31;;;23.37;67.02
37312;BME280;23197;53.912;9.138;2022-08-19T04:30:52;101198.47;;;23.38;67.04
37312;BME280;23197;53.912;9.138;2022-08-19T04:33:20;101198.28;;;23.40;66.99
37312;BME280;23197;53.912;9.138;2022-08-19T04:35:47;101206.97;;;23.42;67.21
37312;BME280;23197;53.912;9.138;2022-08-19T04:38:15;101204.94;;;23.44;66.96
37312;BME280;23197;53.912;9.138;2022-08-19T04:40:44;101220.59;;;23.47;66.90
37312;BME280;23197;53.912;9.138;2022-08-19T04:43:29;101217.94;;;23.47;66.82
37312;BME280;23197;53.912;9.138;2022-08-19T04:45:54;101222.09;;;23.49;66.71
37312;BME280;23197;53.912;9.138;2022-08-19T04:48:20;101213.91;;;23.51;66.93
37312;BME280;23197;53.912;9.138;2022-08-19T04:50:55;101215.56;;;23.52;66.95
37312;BME280;23197;53.912;9.138;2022-08-19T04:53:33;101211.44;;;23.49;66.61
37312;BME280;23197;53.912;9.138;2022-08-19T04:56:04;101218.59;;;23.49;66.92
37312;BME280;23197;53.912;9.138;2022-08-19T04:58:35;101224.94;;;23.48;67.00
37312;BME280;23197;53.912;9.138;2022-08-19T05:01:01;101233.28;;;23.45;67.01
37312;BME280;23197;53.912;9.138;2022-08-19T05:03:26;101241.28;;;23.45;66.89
37312;BME280;23197;53.912;9.138;2022-08-19T05:05:52;101246.28;;;23.48;66.86
37312;BME280;23197;53.912;9.138;2022-08-19T05:08:20;101244.59;;;23.47;66.91
37312;BME280;23197;53.912;9.138;2022-08-19T05:10:51;101249.13;;;23.46;66.78
37312;BME280;23197;53.912;9.138;2022-08-19T05:13:18;101251.28;;;23.51;66.79
37312;BME280;23197;53.912;9.138;2022-08-19T05:15:53;101257.63;;;23.50;66.96
37312;BME280;23197;53.912;9.138;2022-08-19T05:18:19;101255.41;;;23.53;66.98
37312;BME280;23197;53.912;9.138;2022-08-19T05:21:12;101263.59;;;23.52;66.75
37312;BME280;23197;53.912;9.138;2022-08-19T05:23:56;101254.78;;;23.51;66.82
37312;BME280;23197;53.912;9.138;2022-08-19T05:26:23;101252.94;;;23.52;66.62
37312;BME280;23197;53.912;9.138;2022-08-19T05:28:54;101248.59;;;23.51;66.60
37312;BME280;23197;53.912;9.138;2022-08-19T05:31:20;101256.13;;;23.47;66.50
37312;BME280;23197;53.912;9.138;2022-08-19T05:33:46;101251.13;;;23.44;66.52
37312;BME280;23197;53.912;9.138;2022-08-19T05:36:11;101251.13;;;23.44;66.70
37312;BME280;23197;53.912;9.138;2022-08-19T05:38:37;101246.97;;;23.42;66.21
37312;BME280;23197;53.912;9.138;2022-08-19T05:41:10;101248.81;;;23.41;66.43
37312;BME280;23197;53.912;9.138;2022-08-19T05:43:36;101239.44;;;23.45;66.74
37312;BME280;23197;53.912;9.138;2022-08-19T05:46:03;101252.47;;;23.48;66.54
37312;BME280;23197;53.912;9.138;2022-08-19T05:48:30;101260.94;;;23.52;66.93
37312;BME280;23197;53.912;9.138;2022-08-19T05:50:56;101259.09;;;23.52;66.36
37312;BME280;23197;53.912;9.138;2022-08-19T05:53:23;101263.59;;;23.52;66.22
37312;BME280;23197;53.912;9.138;2022-08-19T05:55:49;101257.25;;;23.53;66.46
37312;BME280;23197;53.912;9.138;2022-08-19T05:58:14;101243.91;;;23.53;66.35
37312;BME280;23197;53.912;9.138;2022-08-19T06:00:43;101243.91;;;23.53;65.99
37312;BME280;23197;53.912;9.138;2022-08-19T06:03:09;101240.91;;;23.56;66.41
37312;BME280;23197;53.912;9.138;2022-08-19T06:05:35;101244.25;;;23.58;66.25
37312;BME280;23197;53.912;9.138;2022-08-19T06:08:01;101245.06;;;23.59;66.41
37312;BME280;23197;53.912;9.138;2022-08-19T06:10:26;101245.91;;;23.59;66.20
37312;BME280;23197;53.912;9.138;2022-08-19T06:12:53;101246.91;;;23.58;65.96
37312;BME280;23197;53.912;9.138;2022-08-19T06:15:19;101241.44;;;23.51;65.86
37312;BME280;23197;53.912;9.138;2022-08-19T06:17:44;101248.97;;;23.48;65.57
37312;BME280;23197;53.912;9.138;2022-08-19T06:20:13;101252.13;;;23.43;66.11
37312;BME280;23197;53.912;9.138;2022-08-19T06:22:45;101254.31;;;23.40;65.93
37312;BME280;23197;53.912;9.138;2022-08-19T06:25:12;101250.31;;;23.44;66.11
37312;BME280;23197;53.912;9.138;2022-08-19T06:27:38;101248.47;;;23.44;66.21
37312;BME280;23197;53.912;9.138;2022-08-19T06:30:04;101253.28;;;23.49;65.99
37312;BME280;23197;53.912;9.138;2022-08-19T06:32:30;101254.94;;;23.50;66.03
37312;BME280;23197;53.912;9.138;2022-08-19T06:34:56;101254.13;;;23.49;65.90
37312;BME280;23197;53.912;9.138;2022-08-19T06:37:22;101255.13;;;23.48;66.01
37312;BME280;23197;53.912;9.138;2022-08-19T06:39:48;101267.28;;;23.51;65.86
37312;BME280;23197;53.912;9.138;2022-08-19T06:42:14;101263.59;;;23.52;65.83
37312;BME280;23197;53.912;9.138;2022-08-19T06:44:43;101266.09;;;23.53;65.85
37312;BME280;23197;53.912;9.138;2022-08-19T06:47:12;101263.94;;;23.57;66.27
37312;BME280;23197;53.912;9.138;2022-08-19T06:49:38;101260.91;;;23.60;65.79
37312;BME280;23197;53.912;9.138;2022-08-19T06:52:05;101264.28;;;23.62;65.75
37312;BME280;23197;53.912;9.138;2022-08-19T06:54:30;101265.59;;;23.66;65.99
37312;BME280;23197;53.912;9.138;2022-08-19T06:57:00;101268.25;;;23.66;66.08
37312;BME280;23197;53.912;9.138;2022-08-19T06:59:30;101261.94;;;23.67;65.77
37312;BME280;23197;53.912;9.138;2022-08-19T07:01:58;101275.94;;;23.69;65.80
37312;BME280;23197;53.912;9.138;2022-08-19T07:04:30;101273.25;;;23.69;66.01
37312;BME280;23197;53.912;9.138;2022-08-19T07:07:01;101278.91;;;23.74;65.74
37312;BME280;23197;53.912;9.138;2022-08-19T07:09:28;101269.91;;;23.75;65.70
37312;BME280;23197;53.912;9.138;2022-08-19T07:11:55;101280.56;;;23.75;65.82
37312;BME280;23197;53.912;9.138;2022-08-19T07:14:24;101291.25;;;23.75;65.65
37312;BME280;23197;53.912;9.138;2022-08-19T07:16:51;101292.91;;;23.76;65.59
37312;BME280;23197;53.912;9.138;2022-08-19T07:19:18;101290.06;;;23.78;65.78
37312;BME280;23197;53.912;9.138;2022-08-19T07:21:44;101300.41;;;23.81;65.81
37312;BME280;23197;53.912;9.138;2022-08-19T07:24:10;101287.91;;;23.81;65.25
37312;BME280;23197;53.912;9.138;2022-08-19T07:26:42;101282.72;;;23.80;65.54
37312;BME280;23197;53.912;9.138;2022-08-19T07:29:08;101284.84;;;23.85;65.52
37312;BME280;23197;53.912;9.138;2022-08-19T07:31:34;101286.53;;;23.86;65.22
37312;BME280;23197;53.912;9.138;2022-08-19T07:34:07;101290.69;;;23.88;65.64
37312;BME280;23197;53.912;9.138;2022-08-19T07:36:35;101297.88;;;23.88;65.79
37312;BME280;23197;53.912;9.138;2022-08-19T07:39:05;101298.22;;;23.85;65.32
37312;BME280;23197;53.912;9.138;2022-08-19T07:41:32;101301.84;;;23.92;65.49
37312;BME280;23197;53.912;9.138;2022-08-19T07:43:59;101298.84;;;23.95;65.44
37312;BME280;23197;53.912;9.138;2022-08-19T07:46:32;101306.50;;;23.98;65.42
37312;BME280;23197;53.912;9.138;2022-08-19T07:48:59;101299.81;;;24.02;65.36
37312;BME280;23197;53.912;9.138;2022-08-19T07:51:26;101302.13;;;24.05;65.87
37312;BME280;23197;53.912;9.138;2022-08-19T07:53:52;101308.78;;;24.09;65.90
37312;BME280;23197;53.912;9.138;2022-08-19T07:56:19;101304.41;;;24.16;65.67
37312;BME280;23197;53.912;9.138;2022-08-19T07:58:46;101301.03;;;24.22;65.95
37312;BME280;23197;53.912;9.138;2022-08-19T08:01:16;101317.00;;;24.30;65.80
37312;BME280;23197;53.912;9.138;2022-08-19T08:03:42;101314.31;;;24.39;65.81
37312;BME280;23197;53.912;9.138;2022-08-19T08:06:26;101305.97;;;24.42;65.55
37312;BME280;23197;53.912;9.138;2022-08-19T08:09:12;101308.25;;;24.45;65.33
37312;BME280;23197;53.912;9.138;2022-08-19T08:11:39;101306.91;;;24.49;65.54
37312;BME280;23197;53.912;9.138;2022-08-19T08:14:06;101317.91;;;24.54;65.02
37312;BME280;23197;53.912;9.138;2022-08-19T08:16:36;101324.53;;;24.58;65.08
37312;BME280;23197;53.912;9.138;2022-08-19T08:19:06;101325.53;;;24.65;65.18
37312;BME280;23197;53.912;9.138;2022-08-19T08:21:35;101333.09;;;24.76;64.90
37312;BME280;23197;53.912;9.138;2022-08-19T08:24:00;101337.41;;;24.85;65.13
37312;BME280;23197;53.912;9.138;2022-08-19T08:26:26;101340.63;;;24.96;65.16
37312;BME280;23197;53.912;9.138;2022-08-19T08:28:52;101343.94;;;25.06;65.15
37312;BME280;23197;53.912;9.138;2022-08-19T08:31:18;101339.81;;;25.18;65.55
37312;BME280;23197;53.912;9.138;2022-08-19T08:33:44;101339.75;;;25.26;65.32
37312;BME280;23197;53.912;9.138;2022-08-19T08:36:11;101343.06;;;25.28;64.78
37312;BME280;23197;53.912;9.138;2022-08-19T08:38:40;101344.38;;;25.32;64.96
37312;BME280;23197;53.912;9.138;2022-08-19T08:43:40;101348.59;;;25.41;64.30
37312;BME280;23197;53.912;9.138;2022-08-19T08:46:13;101347.88;;;25.48;64.29
37312;BME280;23197;53.912;9.138;2022-08-19T08:51:35;101343.22;;;25.79;64.94
37312;BME280;23197;53.912;9.138;2022-08-19T08:54:05;101345.41;;;26.05;64.99
37312;BME280;23197;53.912;9.138;2022-08-19T08:56:31;101341.19;;;26.32;64.34
37312;BME280;23197;53.912;9.138;2022-08-19T08:59:07;101338.19;;;26.57;64.86
37312;BME280;23197;53.912;9.138;2022-08-19T09:01:35;101347.28;;;26.77;64.03
37312;BME280;23197;53.912;9.138;2022-08-19T09:04:06;101349.59;;;26.80;62.77
37312;BME280;23197;53.912;9.138;2022-08-19T09:12:02;101350.22;;;26.82;61.74
37312;BME280;23197;53.912;9.138;2022-08-19T09:17:17;101350.59;;;27.00;61.67
37312;BME280;23197;53.912;9.138;2022-08-19T09:22:16;101350.28;;;27.10;61.65
37312;BME280;23197;53.912;9.138;2022-08-19T09:24:41;101351.34;;;27.16;61.56
37312;BME280;23197;53.912;9.138;2022-08-19T09:27:07;101349.97;;;27.20;61.32
37312;BME280;23197;53.912;9.138;2022-08-19T09:29:32;101355.19;;;27.28;61.52
37312;BME280;23197;53.912;9.138;2022-08-19T09:31:57;101349.22;;;27.33;61.41
37312;BME280;23197;53.912;9.138;2022-08-19T09:34:23;101338.91;;;27.36;61.13
37312;BME280;23197;53.912;9.138;2022-08-19T09:36:49;101350.53;;;27.43;60.96
37312;BME280;23197;53.912;9.138;2022-08-19T09:39:18;101346.81;;;27.44;59.95
37312;BME280;23197;53.912;9.138;2022-08-19T09:41:44;101334.63;;;27.42;59.21
37312;BME280;23197;53.912;9.138;2022-08-19T09:44:09;101345.97;;;27.44;59.79
37312;BME280;23197;53.912;9.138;2022-08-19T09:46:37;101341.69;;;27.49;60.02
37312;BME280;23197;53.912;9.138;2022-08-19T09:49:03;101344.41;;;27.56;60.24
37312;BME280;23197;53.912;9.138;2022-08-19T09:51:31;101345.72;;;27.67;59.98
37312;BME280;23197;53.912;9.138;2022-08-19T09:54:00;101337.56;;;27.81;60.06
37312;BME280;23197;53.912;9.138;2022-08-19T09:56:27;101342.44;;;28.06;59.84
37312;BME280;23197;53.912;9.138;2022-08-19T09:58:53;101339.03;;;28.32;60.25
37312;BME280;23197;53.912;9.138;2022-08-19T10:01:24;101345.69;;;28.49;59.50
37312;BME280;23197;53.912;9.138;2022-08-19T10:03:54;101339.72;;;28.54;59.25
37312;BME280;23197;53.912;9.138;2022-08-19T10:06:23;101342.00;;;28.50;59.13
37312;BME280;23197;53.912;9.138;2022-08-19T10:08:49;101342.81;;;28.44;58.71
37312;BME280;23197;53.912;9.138;2022-08-19T10:11:18;101350.22;;;28.35;57.93
37312;BME280;23197;53.912;9.138;2022-08-19T10:13:44;101338.22;;;28.31;58.02
37312;BME280;23197;53.912;9.138;2022-08-19T10:16:13;101339.00;;;28.25;57.03
37312;BME280;23197;53.912;9.138;2022-08-19T10:18:40;101339.38;;;28.22;57.88
37312;BME280;23197;53.912;9.138;2022-08-19T10:21:18;101342.25;;;28.14;57.72
37312;BME280;23197;53.912;9.138;2022-08-19T10:23:46;101339.75;;;28.06;56.11
37312;BME280;23197;53.912;9.138;2022-08-19T10:26:21;101338.44;;;27.95;56.78
37312;BME280;23197;53.912;9.138;2022-08-19T10:28:48;101339.66;;;27.86;56.76
37312;BME280;23197;53.912;9.138;2022-08-19T10:31:17;101344.56;;;27.76;56.95
37312;BME280;23197;53.912;9.138;2022-08-19T10:33:46;101337.50;;;27.68;57.03
37312;BME280;23197;53.912;9.138;2022-08-19T10:36:19;101339.09;;;27.63;57.06
37312;BME280;23197;53.912;9.138;2022-08-19T10:38:47;101334.13;;;27.59;57.26
37312;BME280;23197;53.912;9.138;2022-08-19T10:41:17;101334.50;;;27.56;56.35
37312;BME280;23197;53.912;9.138;2022-08-19T10:43:43;101334.13;;;27.59;57.65
37312;BME280;23197;53.912;9.138;2022-08-19T10:46:13;101333.50;;;27.64;57.76
37312;BME280;23197;53.912;9.138;2022-08-19T10:48:39;101332.16;;;27.75;58.17
37312;BME280;23197;53.912;9.138;2022-08-19T10:51:05;101323.53;;;27.86;57.96
37312;BME280;23197;53.912;9.138;2022-08-19T10:53:50;101312.63;;;27.94;57.35
37312;BME280;23197;53.912;9.138;2022-08-19T10:56:16;101319.47;;;28.03;57.79
37312;BME280;23197;53.912;9.138;2022-08-19T10:59:00;101325.31;;;28.13;57.55
37312;BME280;23197;53.912;9.138;2022-08-19T11:01:29;101318.28;;;28.19;57.29
37312;BME280;23197;53.912;9.138;2022-08-19T11:03:57;101317.06;;;28.28;57.19
37312;BME280;23197;53.912;9.138;2022-08-19T11:06:23;101317.13;;;28.35;56.87
37312;BME280;23197;53.912;9.138;2022-08-19T11:08:54;101323.34;;;28.42;56.53
37312;BME280;23197;53.912;9.138;2022-08-19T11:11:20;101325.41;;;28.47;56.68
37312;BME280;23197;53.912;9.138;2022-08-19T11:13:47;101312.41;;;28.50;57.06
37312;BME280;23197;53.912;9.138;2022-08-19T11:16:22;101311.38;;;28.51;57.19
37312;BME280;23197;53.912;9.138;2022-08-19T11:18:51;101309.31;;;28.53;56.80
37312;BME280;23197;53.912;9.138;2022-08-19T11:21:32;101319.66;;;28.56;57.37
37312;BME280;23197;53.912;9.138;2022-08-19T11:24:01;101313.84;;;28.59;57.01
37312;BME280;23197;53.912;9.138;2022-08-19T11:26:29;101317.97;;;28.55;56.53
37312;BME280;23197;53.912;9.138;2022-08-19T11:28:56;101309.72;;;28.50;55.43
37312;BME280;23197;53.912;9.138;2022-08-19T11:31:24;101317.56;;;28.45;55.54
37312;BME280;23197;53.912;9.138;2022-08-19T11:33:50;101307.41;;;28.41;55.86
37312;BME280;23197;53.912;9.138;2022-08-19T11:36:17;101319.63;;;28.36;56.19
37312;BME280;23197;53.912;9.138;2022-08-19T11:38:44;101318.56;;;28.31;56.43
37312;BME280;23197;53.912;9.138;2022-08-19T11:41:10;101323.28;;;28.29;56.53
37312;BME280;23197;53.912;9.138;2022-08-19T11:43:36;101315.00;;;28.24;56.21
37312;BME280;23197;53.912;9.138;2022-08-19T11:46:06;101319.13;;;28.20;56.60
37312;BME280;23197;53.912;9.138;2022-08-19T11:48:33;101326.16;;;28.21;56.83
37312;BME280;23197;53.912;9.138;2022-08-19T11:50:59;101326.97;;;28.21;57.05
37312;BME280;23197;53.912;9.138;2022-08-19T11:53:24;101326.97;;;28.21;56.68
37312;BME280;23197;53.912;9.138;2022-08-19T11:55:53;101328.22;;;28.19;56.09
37312;BME280;23197;53.912;9.138;2022-08-19T11:58:21;101327.19;;;28.20;56.21
37312;BME280;23197;53.912;9.138;2022-08-19T12:00:47;101335.25;;;28.20;56.46
37312;BME280;23197;53.912;9.138;2022-08-19T12:03:13;101333.81;;;28.17;56.52
37312;BME280;23197;53.912;9.138;2022-08-19T12:05:40;101335.63;;;28.17;56.59
37312;BME280;23197;53.912;9.138;2022-08-19T12:08:06;101330.06;;;28.11;55.09
37312;BME280;23197;53.912;9.138;2022-08-19T12:10:32;101341.84;;;28.10;54.69
37312;BME280;23197;53.912;9.138;2022-08-19T12:12:58;101335.44;;;28.11;55.94
37312;BME280;23197;53.912;9.138;2022-08-19T12:15:23;101344.31;;;28.12;56.52
37312;BME280;23197;53.912;9.138;2022-08-19T12:17:49;101342.69;;;28.18;56.69
37312;BME280;23197;53.912;9.138;2022-08-19T12:20:14;101338.56;;;28.22;56.91
37312;BME280;23197;53.912;9.138;2022-08-19T12:22:42;101337.97;;;28.26;56.48
37312;BME280;23197;53.912;9.138;2022-08-19T12:25:10;101341.47;;;28.27;56.38
37312;BME280;23197;53.912;9.138;2022-08-19T12:27:37;101338.38;;;28.30;56.90
37312;BME280;23197;53.912;9.138;2022-08-19T12:30:04;101328.28;;;28.32;56.62
37312;BME280;23197;53.912;9.138;2022-08-19T12:32:30;101329.13;;;28.32;57.02
37312;BME280;23197;53.912;9.138;2022-08-19T12:34:56;101324.56;;;28.33;56.73
37312;BME280;23197;53.912;9.138;2022-08-19T12:37:21;101320.84;;;28.34;56.17
37312;BME280;23197;53.912;9.138;2022-08-19T12:39:46;101321.47;;;28.36;57.00
37312;BME280;23197;53.912;9.138;2022-08-19T12:42:13;101322.72;;;28.40;56.29
37312;BME280;23197;53.912;9.138;2022-08-19T12:44:41;101321.28;;;28.44;56.34
37312;BME280;23197;53.912;9.138;2022-08-19T12:47:08;101319.22;;;28.46;56.46
37312;BME280;23197;53.912;9.138;2022-08-19T12:49:35;101319.44;;;28.51;56.55
37312;BME280;23197;53.912;9.138;2022-08-19T12:52:06;101316.75;;;28.58;56.13
37312;BME280;23197;53.912;9.138;2022-08-19T12:54:33;101312.63;;;28.69;56.22
37312;BME280;23197;53.912;9.138;2022-08-19T12:56:59;101309.94;;;28.69;55.40
37312;BME280;23197;53.912;9.138;2022-08-19T12:59:26;101304.56;;;28.75;55.75
37312;BME280;23197;53.912;9.138;2022-08-19T13:01:51;101294.84;;;29.07;56.07
37312;BME280;23197;53.912;9.138;2022-08-19T13:04:17;101294.38;;;29.57;56.75
37312;BME280;23197;53.912;9.138;2022-08-19T13:06:43;101298.31;;;30.06;56.20
37312;BME280;23197;53.912;9.138;2022-08-19T13:09:08;101292.25;;;30.55;56.21
37312;BME280;23197;53.912;9.138;2022-08-19T13:11:35;101294.09;;;30.86;51.28